Terminal Aerodrome Forecast
Issued by NWS

Current Version | Previous Version | Text Only | Print | Product List | Glossary On
Versions: 1 2 3 4 5 6 7 8 9 10 11 12 13 14
000
FTPQ31 PGUM 161738
TAFGUM
TAF

TAF
PKMJ 161738Z 1618/1718 05008KT P6SM VCSH SCT015 SCT050 BKN120
     FM162200 05014KT P6SM VCSH SCT015 BKN050 BKN100
      TEMPO 1623/1703 05015G25KT 2SM +SHRA SCT008 OVC015
     FM170300 05015KT P6SM VCSH SCT015 BKN050 OVC100
      TEMPO 1703/1707 05015G25KT 3SM SHRA BKN015 OVC050=

USA.gov is the U.S. government's official web portal to all federal, state and local government web resources and services.